sensor_id;sensor_type;location;lat;lon;timestamp;P1;durP1;ratioP1;P2;durP2;ratioP2
77061;SDS011;65989;51.686;5.138;2023-04-05T00:00:24;18.45;;;8.68;;
77061;SDS011;65989;51.686;5.138;2023-04-05T00:02:50;15.67;;;8.03;;
77061;SDS011;65989;51.686;5.138;2023-04-05T00:05:16;14.52;;;8.23;;
77061;SDS011;65989;51.686;5.138;2023-04-05T00:07:54;15.18;;;8.10;;
77061;SDS011;65989;51.686;5.138;2023-04-05T00:10:24;14.98;;;8.90;;
77061;SDS011;65989;51.686;5.138;2023-04-05T00:12:50;18.47;;;8.97;;
77061;SDS011;65989;51.686;5.138;2023-04-05T00:15:15;14.32;;;8.70;;
77061;SDS011;65989;51.686;5.138;2023-04-05T00:17:41;16.10;;;8.80;;
77061;SDS011;65989;51.686;5.138;2023-04-05T00:20:07;17.45;;;8.48;;
77061;SDS011;65989;51.686;5.138;2023-04-05T00:22:35;18.05;;;9.02;;
77061;SDS011;65989;51.686;5.138;2023-04-05T00:25:01;17.23;;;9.47;;
77061;SDS011;65989;51.686;5.138;2023-04-05T00:27:27;14.63;;;8.80;;
77061;SDS011;65989;51.686;5.138;2023-04-05T00:29:52;16.13;;;8.63;;
77061;SDS011;65989;51.686;5.138;2023-04-05T00:32:18;16.30;;;8.67;;
77061;SDS011;65989;51.686;5.138;2023-04-05T00:34:43;16.57;;;8.50;;
77061;SDS011;65989;51.686;5.138;2023-04-05T00:37:10;16.27;;;8.37;;
77061;SDS011;65989;51.686;5.138;2023-04-05T00:39:35;14.77;;;8.85;;
77061;SDS011;65989;51.686;5.138;2023-04-05T00:42:02;15.57;;;8.20;;
77061;SDS011;65989;51.686;5.138;2023-04-05T00:44:28;15.75;;;8.25;;
77061;SDS011;65989;51.686;5.138;2023-04-05T00:46:58;14.63;;;8.98;;
77061;SDS011;65989;51.686;5.138;2023-04-05T00:49:25;18.10;;;9.30;;
77061;SDS011;65989;51.686;5.138;2023-04-05T00:51:50;14.95;;;8.85;;
77061;SDS011;65989;51.686;5.138;2023-04-05T00:54:16;16.67;;;9.07;;
77061;SDS011;65989;51.686;5.138;2023-04-05T00:56:42;16.95;;;8.93;;
77061;SDS011;65989;51.686;5.138;2023-04-05T00:59:09;15.25;;;9.05;;
77061;SDS011;65989;51.686;5.138;2023-04-05T01:01:34;21.63;;;8.80;;
77061;SDS011;65989;51.686;5.138;2023-04-05T01:04:04;17.38;;;9.15;;
77061;SDS011;65989;51.686;5.138;2023-04-05T01:09:36;17.80;;;8.85;;
77061;SDS011;65989;51.686;5.138;2023-04-05T01:12:11;18.10;;;9.30;;
77061;SDS011;65989;51.686;5.138;2023-04-05T01:14:42;16.45;;;9.38;;
77061;SDS011;65989;51.686;5.138;2023-04-05T01:17:18;17.48;;;8.48;;
77061;SDS011;65989;51.686;5.138;2023-04-05T01:19:49;17.30;;;8.93;;
77061;SDS011;65989;51.686;5.138;2023-04-05T01:22:26;14.95;;;8.65;;
77061;SDS011;65989;51.686;5.138;2023-04-05T01:31:09;14.55;;;9.20;;
77061;SDS011;65989;51.686;5.138;2023-04-05T01:33:48;20.85;;;9.65;;
77061;SDS011;65989;51.686;5.138;2023-04-05T01:36:38;16.63;;;9.40;;
77061;SDS011;65989;51.686;5.138;2023-04-05T01:39:06;15.77;;;9.13;;
77061;SDS011;65989;51.686;5.138;2023-04-05T01:41:35;15.45;;;9.90;;
77061;SDS011;65989;51.686;5.138;2023-04-05T01:44:02;17.23;;;10.23;;
77061;SDS011;65989;51.686;5.138;2023-04-05T01:46:28;18.83;;;9.50;;
77061;SDS011;65989;51.686;5.138;2023-04-05T01:48:53;16.90;;;9.37;;
77061;SDS011;65989;51.686;5.138;2023-04-05T01:51:19;16.52;;;9.40;;
77061;SDS011;65989;51.686;5.138;2023-04-05T01:53:45;18.93;;;10.50;;
77061;SDS011;65989;51.686;5.138;2023-04-05T01:56:10;17.08;;;9.45;;
77061;SDS011;65989;51.686;5.138;2023-04-05T01:58:35;21.97;;;10.90;;
77061;SDS011;65989;51.686;5.138;2023-04-05T02:01:01;17.97;;;9.90;;
77061;SDS011;65989;51.686;5.138;2023-04-05T02:03:26;16.93;;;9.50;;
77061;SDS011;65989;51.686;5.138;2023-04-05T02:05:51;19.63;;;9.63;;
77061;SDS011;65989;51.686;5.138;2023-04-05T02:08:17;17.40;;;10.83;;
77061;SDS011;65989;51.686;5.138;2023-04-05T02:10:43;17.52;;;10.52;;
77061;SDS011;65989;51.686;5.138;2023-04-05T02:13:09;17.13;;;9.40;;
77061;SDS011;65989;51.686;5.138;2023-04-05T02:15:35;15.23;;;9.65;;
77061;SDS011;65989;51.686;5.138;2023-04-05T02:18:01;19.10;;;9.82;;
77061;SDS011;65989;51.686;5.138;2023-04-05T02:20:27;16.93;;;10.17;;
77061;SDS011;65989;51.686;5.138;2023-04-05T02:22:53;19.55;;;10.00;;
77061;SDS011;65989;51.686;5.138;2023-04-05T02:25:19;16.20;;;9.05;;
77061;SDS011;65989;51.686;5.138;2023-04-05T02:27:45;14.03;;;8.80;;
77061;SDS011;65989;51.686;5.138;2023-04-05T02:30:11;18.05;;;10.50;;
77061;SDS011;65989;51.686;5.138;2023-04-05T02:32:40;16.35;;;10.35;;
77061;SDS011;65989;51.686;5.138;2023-04-05T02:35:11;16.42;;;9.80;;
77061;SDS011;65989;51.686;5.138;2023-04-05T02:37:37;19.90;;;10.60;;
77061;SDS011;65989;51.686;5.138;2023-04-05T02:40:06;18.70;;;9.77;;
77061;SDS011;65989;51.686;5.138;2023-04-05T02:42:33;20.50;;;10.55;;
77061;SDS011;65989;51.686;5.138;2023-04-05T02:44:59;20.43;;;9.93;;
77061;SDS011;65989;51.686;5.138;2023-04-05T02:47:25;16.80;;;9.35;;
77061;SDS011;65989;51.686;5.138;2023-04-05T02:49:50;17.97;;;9.90;;
77061;SDS011;65989;51.686;5.138;2023-04-05T02:52:15;17.03;;;9.93;;
77061;SDS011;65989;51.686;5.138;2023-04-05T02:54:41;18.30;;;10.67;;
77061;SDS011;65989;51.686;5.138;2023-04-05T02:57:10;15.85;;;9.95;;
77061;SDS011;65989;51.686;5.138;2023-04-05T02:59:37;16.83;;;10.27;;
77061;SDS011;65989;51.686;5.138;2023-04-05T03:02:03;18.77;;;10.30;;
77061;SDS011;65989;51.686;5.138;2023-04-05T03:04:29;19.58;;;10.10;;
77061;SDS011;65989;51.686;5.138;2023-04-05T03:06:58;18.65;;;10.07;;
77061;SDS011;65989;51.686;5.138;2023-04-05T03:09:29;19.80;;;10.52;;
77061;SDS011;65989;51.686;5.138;2023-04-05T03:12:01;19.15;;;9.80;;
77061;SDS011;65989;51.686;5.138;2023-04-05T03:14:31;18.10;;;9.87;;
77061;SDS011;65989;51.686;5.138;2023-04-05T03:16:57;16.65;;;9.90;;
77061;SDS011;65989;51.686;5.138;2023-04-05T03:19:22;18.23;;;10.60;;
77061;SDS011;65989;51.686;5.138;2023-04-05T03:21:50;16.53;;;9.63;;
77061;SDS011;65989;51.686;5.138;2023-04-05T03:24:16;17.45;;;9.60;;
77061;SDS011;65989;51.686;5.138;2023-04-05T03:26:42;22.50;;;10.33;;
77061;SDS011;65989;51.686;5.138;2023-04-05T03:29:09;16.10;;;9.55;;
77061;SDS011;65989;51.686;5.138;2023-04-05T03:31:34;21.37;;;11.17;;
77061;SDS011;65989;51.686;5.138;2023-04-05T03:33:59;15.40;;;9.43;;
77061;SDS011;65989;51.686;5.138;2023-04-05T03:36:25;16.02;;;9.55;;
77061;SDS011;65989;51.686;5.138;2023-04-05T03:38:52;18.07;;;10.17;;
77061;SDS011;65989;51.686;5.138;2023-04-05T03:41:20;16.15;;;9.77;;
77061;SDS011;65989;51.686;5.138;2023-04-05T03:43:45;16.67;;;10.17;;
77061;SDS011;65989;51.686;5.138;2023-04-05T03:46:10;19.67;;;10.38;;
77061;SDS011;65989;51.686;5.138;2023-04-05T03:48:36;18.47;;;10.60;;
77061;SDS011;65989;51.686;5.138;2023-04-05T03:51:01;19.47;;;9.50;;
77061;SDS011;65989;51.686;5.138;2023-04-05T03:53:26;20.37;;;10.17;;
77061;SDS011;65989;51.686;5.138;2023-04-05T03:55:53;16.40;;;10.27;;
77061;SDS011;65989;51.686;5.138;2023-04-05T03:58:19;19.73;;;10.68;;
77061;SDS011;65989;51.686;5.138;2023-04-05T04:00:46;21.33;;;11.35;;
77061;SDS011;65989;51.686;5.138;2023-04-05T04:03:11;17.10;;;9.83;;
77061;SDS011;65989;51.686;5.138;2023-04-05T04:05:39;17.55;;;9.93;;
77061;SDS011;65989;51.686;5.138;2023-04-05T04:08:04;18.10;;;9.53;;
77061;SDS011;65989;51.686;5.138;2023-04-05T04:10:30;21.55;;;10.52;;
77061;SDS011;65989;51.686;5.138;2023-04-05T04:12:56;17.57;;;10.43;;
77061;SDS011;65989;51.686;5.138;2023-04-05T04:15:21;19.00;;;10.47;;
77061;SDS011;65989;51.686;5.138;2023-04-05T04:17:47;18.03;;;10.10;;
77061;SDS011;65989;51.686;5.138;2023-04-05T04:20:12;17.90;;;10.17;;
77061;SDS011;65989;51.686;5.138;2023-04-05T04:22:38;17.65;;;9.95;;
77061;SDS011;65989;51.686;5.138;2023-04-05T04:25:07;16.50;;;10.23;;
77061;SDS011;65989;51.686;5.138;2023-04-05T04:27:35;17.17;;;10.23;;
77061;SDS011;65989;51.686;5.138;2023-04-05T04:30:03;17.88;;;10.15;;
77061;SDS011;65989;51.686;5.138;2023-04-05T04:32:34;22.73;;;10.18;;
77061;SDS011;65989;51.686;5.138;2023-04-05T04:40:28;18.53;;;10.90;;
77061;SDS011;65989;51.686;5.138;2023-04-05T04:43:07;18.23;;;10.45;;
77061;SDS011;65989;51.686;5.138;2023-04-05T04:45:38;17.92;;;10.13;;
77061;SDS011;65989;51.686;5.138;2023-04-05T04:48:04;19.13;;;11.00;;
77061;SDS011;65989;51.686;5.138;2023-04-05T04:50:33;21.50;;;11.43;;
77061;SDS011;65989;51.686;5.138;2023-04-05T04:52:59;22.40;;;11.32;;
77061;SDS011;65989;51.686;5.138;2023-04-05T04:55:26;18.77;;;10.80;;
77061;SDS011;65989;51.686;5.138;2023-04-05T04:57:52;18.30;;;10.95;;
77061;SDS011;65989;51.686;5.138;2023-04-05T05:00:19;18.42;;;10.35;;
77061;SDS011;65989;51.686;5.138;2023-04-05T05:02:46;18.07;;;10.13;;
77061;SDS011;65989;51.686;5.138;2023-04-05T05:05:12;21.42;;;10.57;;
77061;SDS011;65989;51.686;5.138;2023-04-05T05:07:38;19.30;;;11.25;;
77061;SDS011;65989;51.686;5.138;2023-04-05T05:10:11;18.65;;;10.73;;
77061;SDS011;65989;51.686;5.138;2023-04-05T05:12:37;20.30;;;10.25;;
77061;SDS011;65989;51.686;5.138;2023-04-05T05:15:03;20.03;;;10.97;;
77061;SDS011;65989;51.686;5.138;2023-04-05T05:17:28;22.10;;;10.43;;
77061;SDS011;65989;51.686;5.138;2023-04-05T05:19:56;19.58;;;10.57;;
77061;SDS011;65989;51.686;5.138;2023-04-05T05:22:24;18.88;;;10.43;;
77061;SDS011;65989;51.686;5.138;2023-04-05T05:24:50;19.90;;;10.67;;
77061;SDS011;65989;51.686;5.138;2023-04-05T05:27:16;20.85;;;11.05;;
77061;SDS011;65989;51.686;5.138;2023-04-05T05:29:41;18.90;;;10.27;;
77061;SDS011;65989;51.686;5.138;2023-04-05T05:32:07;18.17;;;9.90;;
77061;SDS011;65989;51.686;5.138;2023-04-05T05:34:33;18.90;;;10.48;;
77061;SDS011;65989;51.686;5.138;2023-04-05T05:36:59;20.90;;;10.40;;
77061;SDS011;65989;51.686;5.138;2023-04-05T05:39:24;18.33;;;10.53;;
77061;SDS011;65989;51.686;5.138;2023-04-05T05:41:50;17.37;;;10.47;;
77061;SDS011;65989;51.686;5.138;2023-04-05T05:44:15;19.73;;;10.33;;
77061;SDS011;65989;51.686;5.138;2023-04-05T05:46:41;16.90;;;10.40;;
77061;SDS011;65989;51.686;5.138;2023-04-05T05:49:06;20.47;;;11.90;;
77061;SDS011;65989;51.686;5.138;2023-04-05T05:51:31;18.83;;;11.00;;
77061;SDS011;65989;51.686;5.138;2023-04-05T05:53:57;17.70;;;10.23;;
77061;SDS011;65989;51.686;5.138;2023-04-05T05:56:23;22.73;;;10.50;;
77061;SDS011;65989;51.686;5.138;2023-04-05T05:58:48;18.47;;;10.60;;
77061;SDS011;65989;51.686;5.138;2023-04-05T06:01:14;19.37;;;10.87;;
77061;SDS011;65989;51.686;5.138;2023-04-05T06:03:39;20.33;;;10.30;;
77061;SDS011;65989;51.686;5.138;2023-04-05T06:06:05;16.27;;;9.40;;
77061;SDS011;65989;51.686;5.138;2023-04-05T06:08:32;17.80;;;10.27;;
77061;SDS011;65989;51.686;5.138;2023-04-05T06:10:58;17.40;;;9.65;;
77061;SDS011;65989;51.686;5.138;2023-04-05T06:13:24;18.23;;;9.40;;
77061;SDS011;65989;51.686;5.138;2023-04-05T06:15:50;16.90;;;9.55;;
77061;SDS011;65989;51.686;5.138;2023-04-05T06:18:15;14.83;;;9.93;;
77061;SDS011;65989;51.686;5.138;2023-04-05T06:20:41;14.88;;;9.25;;
77061;SDS011;65989;51.686;5.138;2023-04-05T06:23:11;14.93;;;9.20;;
77061;SDS011;65989;51.686;5.138;2023-04-05T06:25:37;18.90;;;9.95;;
77061;SDS011;65989;51.686;5.138;2023-04-05T06:28:04;18.63;;;10.15;;
77061;SDS011;65989;51.686;5.138;2023-04-05T06:30:30;17.70;;;9.68;;
77061;SDS011;65989;51.686;5.138;2023-04-05T06:32:57;15.05;;;8.82;;
77061;SDS011;65989;51.686;5.138;2023-04-05T06:35:23;16.33;;;9.87;;
77061;SDS011;65989;51.686;5.138;2023-04-05T06:37:49;17.02;;;9.63;;
77061;SDS011;65989;51.686;5.138;2023-04-05T06:40:15;18.10;;;9.55;;
77061;SDS011;65989;51.686;5.138;2023-04-05T06:42:41;15.67;;;9.10;;
77061;SDS011;65989;51.686;5.138;2023-04-05T06:45:07;15.80;;;9.63;;
77061;SDS011;65989;51.686;5.138;2023-04-05T06:47:33;18.23;;;9.82;;
77061;SDS011;65989;51.686;5.138;2023-04-05T06:49:59;16.83;;;9.30;;
77061;SDS011;65989;51.686;5.138;2023-04-05T06:52:24;16.60;;;8.52;;
77061;SDS011;65989;51.686;5.138;2023-04-05T06:54:50;16.23;;;9.03;;
77061;SDS011;65989;51.686;5.138;2023-04-05T06:57:15;13.00;;;7.93;;
77061;SDS011;65989;51.686;5.138;2023-04-05T06:59:41;16.23;;;8.53;;
77061;SDS011;65989;51.686;5.138;2023-04-05T07:02:06;14.90;;;9.10;;
77061;SDS011;65989;51.686;5.138;2023-04-05T07:04:31;14.70;;;8.73;;
77061;SDS011;65989;51.686;5.138;2023-04-05T07:07:01;17.02;;;8.70;;
77061;SDS011;65989;51.686;5.138;2023-04-05T07:09:33;15.30;;;8.83;;
77061;SDS011;65989;51.686;5.138;2023-04-05T07:11:59;15.63;;;9.23;;
77061;SDS011;65989;51.686;5.138;2023-04-05T07:14:28;18.17;;;9.45;;
77061;SDS011;65989;51.686;5.138;2023-04-05T07:16:54;15.00;;;8.13;;
77061;SDS011;65989;51.686;5.138;2023-04-05T07:19:20;14.30;;;8.30;;
77061;SDS011;65989;51.686;5.138;2023-04-05T07:21:48;16.13;;;8.57;;
77061;SDS011;65989;51.686;5.138;2023-04-05T07:24:14;14.00;;;8.13;;
77061;SDS011;65989;51.686;5.138;2023-04-05T07:26:40;17.67;;;7.83;;
77061;SDS011;65989;51.686;5.138;2023-04-05T07:29:06;12.90;;;7.72;;
77061;SDS011;65989;51.686;5.138;2023-04-05T07:31:32;15.30;;;8.23;;
77061;SDS011;65989;51.686;5.138;2023-04-05T07:33:58;18.53;;;7.90;;
77061;SDS011;65989;51.686;5.138;2023-04-05T07:36:24;15.13;;;8.05;;
77061;SDS011;65989;51.686;5.138;2023-04-05T07:38:51;14.63;;;8.15;;
77061;SDS011;65989;51.686;5.138;2023-04-05T07:41:17;15.50;;;8.23;;
77061;SDS011;65989;51.686;5.138;2023-04-05T07:43:44;13.45;;;8.05;;
77061;SDS011;65989;51.686;5.138;2023-04-05T07:46:09;12.20;;;8.20;;
77061;SDS011;65989;51.686;5.138;2023-04-05T07:48:35;16.40;;;8.23;;
77061;SDS011;65989;51.686;5.138;2023-04-05T07:51:07;13.83;;;8.77;;
77061;SDS011;65989;51.686;5.138;2023-04-05T07:53:34;13.88;;;7.43;;
77061;SDS011;65989;51.686;5.138;2023-04-05T07:56:03;14.93;;;7.85;;
77061;SDS011;65989;51.686;5.138;2023-04-05T07:58:30;12.40;;;7.03;;
77061;SDS011;65989;51.686;5.138;2023-04-05T08:01:03;13.13;;;8.00;;
77061;SDS011;65989;51.686;5.138;2023-04-05T08:03:29;12.53;;;7.43;;
77061;SDS011;65989;51.686;5.138;2023-04-05T08:05:55;18.02;;;7.43;;
77061;SDS011;65989;51.686;5.138;2023-04-05T08:08:23;11.32;;;7.10;;
77061;SDS011;65989;51.686;5.138;2023-04-05T08:10:49;12.90;;;7.00;;
77061;SDS011;65989;51.686;5.138;2023-04-05T08:13:14;14.33;;;7.73;;
77061;SDS011;65989;51.686;5.138;2023-04-05T08:15:40;14.68;;;7.20;;
77061;SDS011;65989;51.686;5.138;2023-04-05T08:18:05;15.13;;;7.63;;
77061;SDS011;65989;51.686;5.138;2023-04-05T08:20:31;14.07;;;7.10;;
77061;SDS011;65989;51.686;5.138;2023-04-05T08:22:56;13.53;;;6.90;;
77061;SDS011;65989;51.686;5.138;2023-04-05T08:25:22;12.50;;;7.10;;
77061;SDS011;65989;51.686;5.138;2023-04-05T08:27:47;13.40;;;6.20;;
77061;SDS011;65989;51.686;5.138;2023-04-05T08:30:13;14.37;;;6.30;;
77061;SDS011;65989;51.686;5.138;2023-04-05T08:32:38;12.10;;;6.70;;
77061;SDS011;65989;51.686;5.138;2023-04-05T08:35:04;10.25;;;5.85;;
77061;SDS011;65989;51.686;5.138;2023-04-05T08:37:33;10.97;;;5.97;;
77061;SDS011;65989;51.686;5.138;2023-04-05T08:39:58;10.38;;;5.88;;
77061;SDS011;65989;51.686;5.138;2023-04-05T08:42:28;10.07;;;5.40;;
77061;SDS011;65989;51.686;5.138;2023-04-05T08:44:57;13.55;;;6.00;;
77061;SDS011;65989;51.686;5.138;2023-04-05T08:47:27;13.82;;;5.68;;
77061;SDS011;65989;51.686;5.138;2023-04-05T08:49:54;13.53;;;6.40;;
77061;SDS011;65989;51.686;5.138;2023-04-05T08:52:19;9.90;;;5.47;;
77061;SDS011;65989;51.686;5.138;2023-04-05T08:54:45;13.20;;;6.00;;
77061;SDS011;65989;51.686;5.138;2023-04-05T08:57:10;13.17;;;5.20;;
77061;SDS011;65989;51.686;5.138;2023-04-05T08:59:36;12.43;;;5.18;;
77061;SDS011;65989;51.686;5.138;2023-04-05T09:02:06;14.00;;;6.13;;
77061;SDS011;65989;51.686;5.138;2023-04-05T09:04:41;11.40;;;5.80;;
77061;SDS011;65989;51.686;5.138;2023-04-05T09:07:08;10.82;;;5.35;;
77061;SDS011;65989;51.686;5.138;2023-04-05T09:09:37;10.80;;;4.65;;
77061;SDS011;65989;51.686;5.138;2023-04-05T09:12:06;10.85;;;4.95;;
77061;SDS011;65989;51.686;5.138;2023-04-05T09:14:35;11.45;;;5.30;;
77061;SDS011;65989;51.686;5.138;2023-04-05T09:17:03;10.63;;;4.77;;
77061;SDS011;65989;51.686;5.138;2023-04-05T09:19:29;11.20;;;5.45;;
77061;SDS011;65989;51.686;5.138;2023-04-05T09:22:01;20.17;;;5.50;;
77061;SDS011;65989;51.686;5.138;2023-04-05T09:24:34;15.07;;;5.33;;
77061;SDS011;65989;51.686;5.138;2023-04-05T09:27:12;10.45;;;4.72;;
77061;SDS011;65989;51.686;5.138;2023-04-05T09:29:43;9.05;;;5.00;;
77061;SDS011;65989;51.686;5.138;2023-04-05T09:32:10;9.02;;;5.07;;
77061;SDS011;65989;51.686;5.138;2023-04-05T09:34:37;9.93;;;4.90;;
77061;SDS011;65989;51.686;5.138;2023-04-05T09:37:14;10.13;;;4.33;;
77061;SDS011;65989;51.686;5.138;2023-04-05T09:39:44;11.27;;;3.92;;
77061;SDS011;65989;51.686;5.138;2023-04-05T09:42:11;11.98;;;4.63;;
77061;SDS011;65989;51.686;5.138;2023-04-05T09:44:52;8.82;;;4.68;;
77061;SDS011;65989;51.686;5.138;2023-04-05T09:47:20;8.75;;;5.00;;
77061;SDS011;65989;51.686;5.138;2023-04-05T09:49:47;13.00;;;4.83;;
77061;SDS011;65989;51.686;5.138;2023-04-05T09:52:19;8.18;;;4.80;;
77061;SDS011;65989;51.686;5.138;2023-04-05T09:54:46;9.73;;;5.30;;
77061;SDS011;65989;51.686;5.138;2023-04-05T09:57:11;12.52;;;6.43;;
77061;SDS011;65989;51.686;5.138;2023-04-05T09:59:40;11.90;;;6.47;;
77061;SDS011;65989;51.686;5.138;2023-04-05T10:02:05;11.60;;;6.00;;
77061;SDS011;65989;51.686;5.138;2023-04-05T10:04:38;12.43;;;6.30;;
77061;SDS011;65989;51.686;5.138;2023-04-05T10:07:10;11.38;;;5.60;;
77061;SDS011;65989;51.686;5.138;2023-04-05T10:09:40;11.52;;;6.03;;
77061;SDS011;65989;51.686;5.138;2023-04-05T10:12:07;9.30;;;5.53;;
77061;SDS011;65989;51.686;5.138;2023-04-05T10:14:34;12.18;;;6.00;;
77061;SDS011;65989;51.686;5.138;2023-04-05T10:17:11;14.53;;;6.40;;
77061;SDS011;65989;51.686;5.138;2023-04-05T10:20:02;10.55;;;4.80;;
77061;SDS011;65989;51.686;5.138;2023-04-05T10:22:40;12.82;;;6.00;;
77061;SDS011;65989;51.686;5.138;2023-04-05T10:28:33;12.23;;;6.20;;
77061;SDS011;65989;51.686;5.138;2023-04-05T10:31:09;10.27;;;5.97;;
77061;SDS011;65989;51.686;5.138;2023-04-05T10:33:45;15.35;;;6.40;;
77061;SDS011;65989;51.686;5.138;2023-04-05T10:36:21;11.35;;;6.43;;
77061;SDS011;65989;51.686;5.138;2023-04-05T10:41:47;14.10;;;7.20;;
77061;SDS011;65989;51.686;5.138;2023-04-05T10:44:16;10.70;;;6.20;;
77061;SDS011;65989;51.686;5.138;2023-04-05T10:46:43;13.75;;;6.50;;
77061;SDS011;65989;51.686;5.138;2023-04-05T10:51:38;11.50;;;6.23;;
77061;SDS011;65989;51.686;5.138;2023-04-05T10:54:04;14.07;;;6.95;;
77061;SDS011;65989;51.686;5.138;2023-04-05T10:56:32;14.63;;;6.57;;
77061;SDS011;65989;51.686;5.138;2023-04-05T10:58:57;12.80;;;6.23;;
77061;SDS011;65989;51.686;5.138;2023-04-05T11:01:23;10.65;;;6.78;;
77061;SDS011;65989;51.686;5.138;2023-04-05T11:03:50;10.18;;;6.03;;
77061;SDS011;65989;51.686;5.138;2023-04-05T11:09:01;10.70;;;6.13;;
77061;SDS011;65989;51.686;5.138;2023-04-05T11:11:39;11.73;;;6.50;;
77061;SDS011;65989;51.686;5.138;2023-04-05T11:16:52;10.00;;;6.22;;
77061;SDS011;65989;51.686;5.138;2023-04-05T11:19:47;10.13;;;5.95;;
77061;SDS011;65989;51.686;5.138;2023-04-05T11:22:12;10.27;;;6.50;;
77061;SDS011;65989;51.686;5.138;2023-04-05T11:24:51;11.77;;;6.50;;
77061;SDS011;65989;51.686;5.138;2023-04-05T11:27:20;11.18;;;6.30;;
77061;SDS011;65989;51.686;5.138;2023-04-05T11:29:53;10.18;;;5.88;;
77061;SDS011;65989;51.686;5.138;2023-04-05T11:32:19;10.32;;;6.05;;
77061;SDS011;65989;51.686;5.138;2023-04-05T11:34:58;15.33;;;6.50;;
77061;SDS011;65989;51.686;5.138;2023-04-05T11:40:36;13.82;;;6.88;;
77061;SDS011;65989;51.686;5.138;2023-04-05T11:43:09;13.20;;;6.20;;
77061;SDS011;65989;51.686;5.138;2023-04-05T11:45:36;11.93;;;6.00;;
77061;SDS011;65989;51.686;5.138;2023-04-05T11:48:03;14.30;;;6.30;;
77061;SDS011;65989;51.686;5.138;2023-04-05T11:50:30;13.18;;;6.63;;
77061;SDS011;65989;51.686;5.138;2023-04-05T11:53:09;12.52;;;6.70;;
77061;SDS011;65989;51.686;5.138;2023-04-05T11:55:36;10.52;;;6.63;;
77061;SDS011;65989;51.686;5.138;2023-04-05T11:58:02;12.87;;;6.40;;
77061;SDS011;65989;51.686;5.138;2023-04-05T12:00:59;11.63;;;6.35;;
77061;SDS011;65989;51.686;5.138;2023-04-05T12:03:26;14.82;;;6.40;;
77061;SDS011;65989;51.686;5.138;2023-04-05T12:05:56;12.45;;;6.70;;
77061;SDS011;65989;51.686;5.138;2023-04-05T12:08:41;13.23;;;7.00;;
77061;SDS011;65989;51.686;5.138;2023-04-05T12:11:14;11.93;;;6.50;;
77061;SDS011;65989;51.686;5.138;2023-04-05T12:13:40;12.00;;;6.82;;
77061;SDS011;65989;51.686;5.138;2023-04-05T12:16:06;13.20;;;6.32;;
77061;SDS011;65989;51.686;5.138;2023-04-05T12:18:33;12.07;;;6.07;;
77061;SDS011;65989;51.686;5.138;2023-04-05T12:21:01;13.80;;;6.85;;
77061;SDS011;65989;51.686;5.138;2023-04-05T12:23:27;10.65;;;6.50;;
77061;SDS011;65989;51.686;5.138;2023-04-05T12:25:54;13.07;;;6.67;;
77061;SDS011;65989;51.686;5.138;2023-04-05T12:28:22;12.43;;;6.57;;
77061;SDS011;65989;51.686;5.138;2023-04-05T12:30:48;12.07;;;6.53;;
77061;SDS011;65989;51.686;5.138;2023-04-05T12:33:14;11.93;;;6.88;;
77061;SDS011;65989;51.686;5.138;2023-04-05T12:35:40;11.77;;;6.77;;
77061;SDS011;65989;51.686;5.138;2023-04-05T12:38:05;13.37;;;6.57;;
77061;SDS011;65989;51.686;5.138;2023-04-05T12:40:35;13.02;;;6.32;;
77061;SDS011;65989;51.686;5.138;2023-04-05T12:43:02;10.85;;;6.90;;
77061;SDS011;65989;51.686;5.138;2023-04-05T12:45:29;13.88;;;6.95;;
77061;SDS011;65989;51.686;5.138;2023-04-05T12:48:03;12.57;;;6.68;;
77061;SDS011;65989;51.686;5.138;2023-04-05T12:50:32;13.37;;;6.23;;
77061;SDS011;65989;51.686;5.138;2023-04-05T12:52:58;13.80;;;7.10;;
77061;SDS011;65989;51.686;5.138;2023-04-05T12:55:37;12.47;;;7.10;;
77061;SDS011;65989;51.686;5.138;2023-04-05T12:58:07;11.52;;;7.28;;
77061;SDS011;65989;51.686;5.138;2023-04-05T13:00:33;12.38;;;6.55;;
77061;SDS011;65989;51.686;5.138;2023-04-05T13:02:59;12.53;;;6.93;;
77061;SDS011;65989;51.686;5.138;2023-04-05T13:05:28;11.63;;;7.10;;
77061;SDS011;65989;51.686;5.138;2023-04-05T13:07:54;11.10;;;6.70;;
77061;SDS011;65989;51.686;5.138;2023-04-05T13:10:21;12.20;;;7.78;;
77061;SDS011;65989;51.686;5.138;2023-04-05T13:12:48;13.23;;;7.80;;
77061;SDS011;65989;51.686;5.138;2023-04-05T13:15:14;11.50;;;7.03;;
77061;SDS011;65989;51.686;5.138;2023-04-05T13:17:41;14.65;;;7.38;;
77061;SDS011;65989;51.686;5.138;2023-04-05T13:20:07;14.32;;;7.72;;
77061;SDS011;65989;51.686;5.138;2023-04-05T13:22:33;12.43;;;7.28;;
77061;SDS011;65989;51.686;5.138;2023-04-05T13:24:59;15.00;;;7.88;;
77061;SDS011;65989;51.686;5.138;2023-04-05T13:27:25;15.60;;;7.37;;
77061;SDS011;65989;51.686;5.138;2023-04-05T13:29:50;12.90;;;7.53;;
77061;SDS011;65989;51.686;5.138;2023-04-05T13:32:16;14.87;;;7.87;;
77061;SDS011;65989;51.686;5.138;2023-04-05T13:34:41;13.43;;;7.43;;
77061;SDS011;65989;51.686;5.138;2023-04-05T13:37:06;13.83;;;7.50;;
77061;SDS011;65989;51.686;5.138;2023-04-05T13:39:32;13.30;;;7.23;;
77061;SDS011;65989;51.686;5.138;2023-04-05T13:41:57;13.73;;;7.83;;
77061;SDS011;65989;51.686;5.138;2023-04-05T13:44:22;12.47;;;7.77;;
77061;SDS011;65989;51.686;5.138;2023-04-05T13:46:48;13.95;;;8.07;;
77061;SDS011;65989;51.686;5.138;2023-04-05T13:49:13;13.63;;;7.83;;
77061;SDS011;65989;51.686;5.138;2023-04-05T13:51:39;13.23;;;7.47;;
77061;SDS011;65989;51.686;5.138;2023-04-05T13:54:07;12.40;;;7.90;;
77061;SDS011;65989;51.686;5.138;2023-04-05T13:56:35;14.00;;;7.85;;
77061;SDS011;65989;51.686;5.138;2023-04-05T13:59:03;13.52;;;7.63;;
77061;SDS011;65989;51.686;5.138;2023-04-05T14:01:29;13.47;;;8.40;;
77061;SDS011;65989;51.686;5.138;2023-04-05T14:03:54;13.77;;;7.83;;
77061;SDS011;65989;51.686;5.138;2023-04-05T14:06:20;14.77;;;8.23;;
77061;SDS011;65989;51.686;5.138;2023-04-05T14:08:45;12.37;;;7.30;;
77061;SDS011;65989;51.686;5.138;2023-04-05T14:11:11;12.77;;;7.60;;
77061;SDS011;65989;51.686;5.138;2023-04-05T14:13:37;15.02;;;7.82;;
77061;SDS011;65989;51.686;5.138;2023-04-05T14:16:02;11.80;;;6.80;;
77061;SDS011;65989;51.686;5.138;2023-04-05T14:18:28;13.13;;;6.77;;
77061;SDS011;65989;51.686;5.138;2023-04-05T14:20:53;13.85;;;7.85;;
77061;SDS011;65989;51.686;5.138;2023-04-05T14:23:20;14.23;;;8.00;;
77061;SDS011;65989;51.686;5.138;2023-04-05T14:25:47;14.35;;;8.00;;
77061;SDS011;65989;51.686;5.138;2023-04-05T14:28:12;21.60;;;7.97;;
77061;SDS011;65989;51.686;5.138;2023-04-05T14:30:38;10.93;;;7.13;;
77061;SDS011;65989;51.686;5.138;2023-04-05T14:33:03;13.77;;;8.30;;
77061;SDS011;65989;51.686;5.138;2023-04-05T14:35:29;12.90;;;7.90;;
77061;SDS011;65989;51.686;5.138;2023-04-05T14:37:54;11.33;;;7.30;;
77061;SDS011;65989;51.686;5.138;2023-04-05T14:40:20;14.13;;;7.77;;
77061;SDS011;65989;51.686;5.138;2023-04-05T14:42:45;14.03;;;8.23;;
77061;SDS011;65989;51.686;5.138;2023-04-05T14:45:10;13.03;;;8.20;;
77061;SDS011;65989;51.686;5.138;2023-04-05T14:47:36;14.40;;;7.78;;
77061;SDS011;65989;51.686;5.138;2023-04-05T14:50:01;13.07;;;7.87;;
77061;SDS011;65989;51.686;5.138;2023-04-05T14:52:27;14.03;;;8.40;;
77061;SDS011;65989;51.686;5.138;2023-04-05T14:54:52;14.18;;;8.20;;
77061;SDS011;65989;51.686;5.138;2023-04-05T14:57:18;12.47;;;7.57;;
77061;SDS011;65989;51.686;5.138;2023-04-05T14:59:43;12.17;;;7.67;;
77061;SDS011;65989;51.686;5.138;2023-04-05T15:02:09;12.85;;;7.82;;
77061;SDS011;65989;51.686;5.138;2023-04-05T15:04:35;13.53;;;7.87;;
77061;SDS011;65989;51.686;5.138;2023-04-05T15:07:00;13.52;;;7.85;;